sensor_id;sensor_type;location;lat;lon;timestamp;pressure;altitude;pressure_sealevel;temperature;humidity
42727;BME280;28372;56.832;60.658;2022-08-21T00:01:52;98943.56;;;20.20;77.20
42727;BME280;28372;56.832;60.658;2022-08-21T00:04:20;98946.25;;;20.24;77.51
42727;BME280;28372;56.832;60.658;2022-08-21T00:06:50;98940.84;;;20.16;78.90
42727;BME280;28372;56.832;60.658;2022-08-21T00:09:19;98944.00;;;20.15;78.67
42727;BME280;28372;56.832;60.658;2022-08-21T00:11:46;98945.22;;;20.10;78.47
42727;BME280;28372;56.832;60.658;2022-08-21T00:14:15;98942.44;;;20.14;78.77
42727;BME280;28372;56.832;60.658;2022-08-21T00:16:43;98943.59;;;20.13;77.63
42727;BME280;28372;56.832;60.658;2022-08-21T00:19:10;98946.78;;;20.11;77.26
42727;BME280;28372;56.832;60.658;2022-08-21T00:21:38;98948.75;;;20.11;77.20
42727;BME280;28372;56.832;60.658;2022-08-21T00:24:10;98948.81;;;20.03;78.75
42727;BME280;28372;56.832;60.658;2022-08-21T00:26:38;98950.41;;;20.01;77.25
42727;BME280;28372;56.832;60.658;2022-08-21T00:29:06;98953.50;;;20.03;77.56
42727;BME280;28372;56.832;60.658;2022-08-21T00:31:33;98949.59;;;20.04;78.39
42727;BME280;28372;56.832;60.658;2022-08-21T00:34:01;98953.50;;;20.03;77.80
42727;BME280;28372;56.832;60.658;2022-08-21T00:36:29;98960.16;;;20.06;78.14
42727;BME280;28372;56.832;60.658;2022-08-21T00:38:57;98952.84;;;19.92;77.98
42727;BME280;28372;56.832;60.658;2022-08-21T00:41:24;98956.41;;;19.89;77.54
42727;BME280;28372;56.832;60.658;2022-08-21T00:44:07;98962.63;;;19.93;76.97
42727;BME280;28372;56.832;60.658;2022-08-21T00:46:37;98958.38;;;19.84;77.34
42727;BME280;28372;56.832;60.658;2022-08-21T00:49:06;98963.88;;;19.84;74.45
42727;BME280;28372;56.832;60.658;2022-08-21T00:54:39;98964.34;;;19.79;72.80
42727;BME280;28372;56.832;60.658;2022-08-21T00:57:15;98971.78;;;19.75;72.13
42727;BME280;28372;56.832;60.658;2022-08-21T00:59:48;98967.88;;;19.73;72.28
42727;BME280;28372;56.832;60.658;2022-08-21T01:02:17;98964.88;;;19.56;68.55
42727;BME280;28372;56.832;60.658;2022-08-21T01:04:46;98969.59;;;19.56;67.32
42727;BME280;28372;56.832;60.658;2022-08-21T01:07:13;98975.50;;;19.47;67.47
42727;BME280;28372;56.832;60.658;2022-08-21T01:09:41;98971.94;;;19.54;67.65
42727;BME280;28372;56.832;60.658;2022-08-21T01:12:09;98968.03;;;19.51;67.80
42727;BME280;28372;56.832;60.658;2022-08-21T01:14:40;98974.97;;;19.66;68.92
42727;BME280;28372;56.832;60.658;2022-08-21T01:17:12;98967.47;;;19.74;69.01
42727;BME280;28372;56.832;60.658;2022-08-21T01:19:41;98971.06;;;19.67;67.89
42727;BME280;28372;56.832;60.658;2022-08-21T01:22:09;98981.22;;;19.71;68.32
42727;BME280;28372;56.832;60.658;2022-08-21T01:24:37;98985.91;;;19.74;68.63
42727;BME280;28372;56.832;60.658;2022-08-21T01:27:05;98988.22;;;19.79;69.78
42727;BME280;28372;56.832;60.658;2022-08-21T01:29:54;98984.09;;;20.05;73.36
42727;BME280;28372;56.832;60.658;2022-08-21T01:32:24;98979.94;;;19.86;69.56
42727;BME280;28372;56.832;60.658;2022-08-21T01:34:52;98976.78;;;19.88;69.06
42727;BME280;28372;56.832;60.658;2022-08-21T01:37:21;98983.78;;;19.96;69.64
42727;BME280;28372;56.832;60.658;2022-08-21T01:39:49;98985.41;;;19.93;69.64
42727;BME280;28372;56.832;60.658;2022-08-21T01:42:17;98990.06;;;19.96;69.78
42727;BME280;28372;56.832;60.658;2022-08-21T01:44:45;98973.22;;;19.94;70.02
42727;BME280;28372;56.832;60.658;2022-08-21T01:47:14;98984.09;;;20.05;71.42
42727;BME280;28372;56.832;60.658;2022-08-21T01:49:44;98992.34;;;20.05;71.81
42727;BME280;28372;56.832;60.658;2022-08-21T01:52:12;98990.34;;;20.09;70.98
42727;BME280;28372;56.832;60.658;2022-08-21T01:54:41;98990.72;;;20.11;72.29
42727;BME280;28372;56.832;60.658;2022-08-21T01:57:09;98992.63;;;20.18;71.85
42727;BME280;28372;56.832;60.658;2022-08-21T01:59:36;98991.38;;;20.23;71.11
42727;BME280;28372;56.832;60.658;2022-08-21T02:02:04;98995.69;;;20.24;71.77
42727;BME280;28372;56.832;60.658;2022-08-21T02:04:32;98997.97;;;20.32;71.39
42727;BME280;28372;56.832;60.658;2022-08-21T02:07:01;99006.16;;;20.40;70.90
42727;BME280;28372;56.832;60.658;2022-08-21T02:09:28;98992.69;;;20.49;69.60
42727;BME280;28372;56.832;60.658;2022-08-21T02:11:57;98989.13;;;20.52;68.76
42727;BME280;28372;56.832;60.658;2022-08-21T02:14:24;99003.16;;;20.61;68.52
42727;BME280;28372;56.832;60.658;2022-08-21T02:16:59;98999.19;;;20.66;67.90
42727;BME280;28372;56.832;60.658;2022-08-21T02:19:37;99005.69;;;20.83;65.29
42727;BME280;28372;56.832;60.658;2022-08-21T02:22:08;99010.75;;;20.88;63.25
42727;BME280;28372;56.832;60.658;2022-08-21T02:24:37;99005.13;;;20.99;62.20
42727;BME280;28372;56.832;60.658;2022-08-21T02:27:22;99004.16;;;21.13;61.44
42727;BME280;28372;56.832;60.658;2022-08-21T02:29:55;99011.44;;;21.27;60.41
42727;BME280;28372;56.832;60.658;2022-08-21T02:32:23;98998.66;;;21.40;58.47
42727;BME280;28372;56.832;60.658;2022-08-21T02:34:51;99003.22;;;21.54;57.98
42727;BME280;28372;56.832;60.658;2022-08-21T02:37:19;99001.81;;;21.93;56.85
42727;BME280;28372;56.832;60.658;2022-08-21T02:39:46;99011.38;;;22.56;54.21
42727;BME280;28372;56.832;60.658;2022-08-21T02:42:14;99013.78;;;23.14;51.68
42727;BME280;28372;56.832;60.658;2022-08-21T02:44:41;99017.16;;;23.75;49.04
42727;BME280;28372;56.832;60.658;2022-08-21T02:47:09;99018.22;;;24.43;46.60
42727;BME280;28372;56.832;60.658;2022-08-21T02:49:36;99019.00;;;25.03;44.85
42727;BME280;28372;56.832;60.658;2022-08-21T02:52:04;99023.38;;;25.42;43.08
42727;BME280;28372;56.832;60.658;2022-08-21T02:54:33;99031.78;;;25.77;41.12
42727;BME280;28372;56.832;60.658;2022-08-21T02:57:00;99030.78;;;26.10;40.34
42727;BME280;28372;56.832;60.658;2022-08-21T02:59:28;99036.91;;;26.62;38.39
42727;BME280;28372;56.832;60.658;2022-08-21T03:01:55;99029.56;;;27.12;37.73
42727;BME280;28372;56.832;60.658;2022-08-21T03:04:23;99033.22;;;27.63;36.81
42727;BME280;28372;56.832;60.658;2022-08-21T03:06:50;99036.13;;;28.09;35.67
42727;BME280;28372;56.832;60.658;2022-08-21T03:09:18;99040.19;;;28.45;34.78
42727;BME280;28372;56.832;60.658;2022-08-21T03:11:45;99031.22;;;28.78;32.93
42727;BME280;28372;56.832;60.658;2022-08-21T03:14:13;99039.50;;;29.15;32.82
42727;BME280;28372;56.832;60.658;2022-08-21T03:16:41;99028.31;;;29.43;32.46
42727;BME280;28372;56.832;60.658;2022-08-21T03:19:09;99027.56;;;29.67;30.94
42727;BME280;28372;56.832;60.658;2022-08-21T03:21:37;99021.50;;;30.02;30.47
42727;BME280;28372;56.832;60.658;2022-08-21T03:24:04;99026.81;;;30.39;29.58
42727;BME280;28372;56.832;60.658;2022-08-21T03:26:33;99021.41;;;30.74;28.61
42727;BME280;28372;56.832;60.658;2022-08-21T03:29:01;99017.75;;;30.98;28.56
42727;BME280;28372;56.832;60.658;2022-08-21T03:31:29;99030.56;;;31.35;27.63
42727;BME280;28372;56.832;60.658;2022-08-21T03:33:58;99030.81;;;31.67;26.90
42727;BME280;28372;56.832;60.658;2022-08-21T03:36:26;99038.81;;;31.94;26.54
42727;BME280;28372;56.832;60.658;2022-08-21T03:38:53;99035.91;;;32.24;25.92
42727;BME280;28372;56.832;60.658;2022-08-21T03:41:21;99045.34;;;32.48;25.42
42727;BME280;28372;56.832;60.658;2022-08-21T03:43:48;99045.88;;;32.72;25.40
42727;BME280;28372;56.832;60.658;2022-08-21T03:46:16;99048.50;;;33.08;24.72
42727;BME280;28372;56.832;60.658;2022-08-21T03:48:43;99047.22;;;33.35;24.37
42727;BME280;28372;56.832;60.658;2022-08-21T03:51:11;99050.28;;;33.75;23.62
42727;BME280;28372;56.832;60.658;2022-08-21T03:53:39;99052.28;;;34.12;23.38
42727;BME280;28372;56.832;60.658;2022-08-21T03:56:07;99050.88;;;34.34;22.75
42727;BME280;28372;56.832;60.658;2022-08-21T03:58:34;99042.75;;;34.53;22.19
42727;BME280;28372;56.832;60.658;2022-08-21T04:01:03;99059.69;;;34.81;22.19
42727;BME280;28372;56.832;60.658;2022-08-21T04:03:35;99058.69;;;35.07;20.99
42727;BME280;28372;56.832;60.658;2022-08-21T04:06:04;99062.03;;;35.33;21.23
42727;BME280;28372;56.832;60.658;2022-08-21T04:08:32;99054.34;;;35.62;20.81
42727;BME280;28372;56.832;60.658;2022-08-21T04:11:00;99060.72;;;35.85;20.74
42727;BME280;28372;56.832;60.658;2022-08-21T04:13:27;99060.56;;;36.37;19.93
42727;BME280;28372;56.832;60.658;2022-08-21T04:15:55;99063.97;;;36.65;19.83
42727;BME280;28372;56.832;60.658;2022-08-21T04:18:24;99061.50;;;36.98;19.04
42727;BME280;28372;56.832;60.658;2022-08-21T04:20:52;99073.94;;;37.14;19.18
42727;BME280;28372;56.832;60.658;2022-08-21T04:23:21;99076.41;;;37.29;18.58
42727;BME280;28372;56.832;60.658;2022-08-21T04:25:52;99078.56;;;37.47;18.96
42727;BME280;28372;56.832;60.658;2022-08-21T04:28:21;99072.91;;;37.72;18.43
42727;BME280;28372;56.832;60.658;2022-08-21T04:30:50;99075.22;;;37.98;18.12
42727;BME280;28372;56.832;60.658;2022-08-21T04:33:20;99077.03;;;38.20;17.77
42727;BME280;28372;56.832;60.658;2022-08-21T04:35:49;99078.03;;;38.42;17.49
42727;BME280;28372;56.832;60.658;2022-08-21T04:38:17;99071.94;;;38.57;17.58
42727;BME280;28372;56.832;60.658;2022-08-21T04:40:45;99078.06;;;38.80;17.22
42727;BME280;28372;56.832;60.658;2022-08-21T04:43:12;99076.28;;;38.96;17.31
42727;BME280;28372;56.832;60.658;2022-08-21T04:45:43;99078.22;;;39.20;16.62
42727;BME280;28372;56.832;60.658;2022-08-21T04:48:12;99089.19;;;39.56;16.04
42727;BME280;28372;56.832;60.658;2022-08-21T04:53:33;99086.53;;;39.78;15.51
42727;BME280;28372;56.832;60.658;2022-08-21T04:56:11;99083.81;;;40.12;14.97
42727;BME280;28372;56.832;60.658;2022-08-21T04:58:40;99081.06;;;40.33;15.38
42727;BME280;28372;56.832;60.658;2022-08-21T05:01:14;99088.69;;;40.52;15.09
42727;BME280;28372;56.832;60.658;2022-08-21T05:03:43;99074.59;;;40.81;14.49
42727;BME280;28372;56.832;60.658;2022-08-21T05:06:13;99073.38;;;40.89;14.08
42727;BME280;28372;56.832;60.658;2022-08-21T05:08:43;99074.59;;;40.81;13.96
42727;BME280;28372;56.832;60.658;2022-08-21T05:11:12;99072.03;;;41.04;13.87
42727;BME280;28372;56.832;60.658;2022-08-21T05:13:40;99072.44;;;41.29;13.28
42727;BME280;28372;56.832;60.658;2022-08-21T05:16:10;99075.00;;;41.40;13.25
42727;BME280;28372;56.832;60.658;2022-08-21T05:18:37;99068.88;;;41.57;12.97
42727;BME280;28372;56.832;60.658;2022-08-21T05:21:05;99062.19;;;41.76;12.13
42727;BME280;28372;56.832;60.658;2022-08-21T05:23:33;99065.94;;;42.00;13.05
42727;BME280;28372;56.832;60.658;2022-08-21T05:26:01;99080.13;;;42.28;12.12
42727;BME280;28372;56.832;60.658;2022-08-21T05:28:28;99075.47;;;42.54;11.54
42727;BME280;28372;56.832;60.658;2022-08-21T05:30:56;99071.19;;;42.76;11.87
42727;BME280;28372;56.832;60.658;2022-08-21T05:33:23;99071.72;;;42.67;11.84
42727;BME280;28372;56.832;60.658;2022-08-21T05:35:53;99079.94;;;42.86;11.65
42727;BME280;28372;56.832;60.658;2022-08-21T05:38:26;99077.47;;;42.98;11.42
42727;BME280;28372;56.832;60.658;2022-08-21T05:40:55;99063.69;;;43.25;11.26
42727;BME280;28372;56.832;60.658;2022-08-21T05:43:23;99065.19;;;43.34;11.22
42727;BME280;28372;56.832;60.658;2022-08-21T05:45:50;99067.84;;;43.40;11.11
42727;BME280;28372;56.832;60.658;2022-08-21T05:48:20;99069.94;;;43.47;11.32
42727;BME280;28372;56.832;60.658;2022-08-21T05:50:49;99057.22;;;43.48;10.92
42727;BME280;28372;56.832;60.658;2022-08-21T05:53:18;99066.31;;;43.54;11.14
42727;BME280;28372;56.832;60.658;2022-08-21T05:55:46;99058.31;;;43.68;11.13
42727;BME280;28372;56.832;60.658;2022-08-21T05:58:16;99070.28;;;43.74;10.39
42727;BME280;28372;56.832;60.658;2022-08-21T06:00:46;99056.97;;;43.92;11.08
42727;BME280;28372;56.832;60.658;2022-08-21T06:03:18;99064.53;;;43.97;10.78
42727;BME280;28372;56.832;60.658;2022-08-21T06:05:47;99052.47;;;44.22;10.17
42727;BME280;28372;56.832;60.658;2022-08-21T06:08:16;99058.28;;;44.40;10.43
42727;BME280;28372;56.832;60.658;2022-08-21T06:10:44;99054.25;;;44.51;10.63
42727;BME280;28372;56.832;60.658;2022-08-21T06:13:13;99063.53;;;44.59;10.41
42727;BME280;28372;56.832;60.658;2022-08-21T06:15:41;99056.81;;;44.72;10.73
42727;BME280;28372;56.832;60.658;2022-08-21T06:18:09;99063.22;;;44.80;10.30
42727;BME280;28372;56.832;60.658;2022-08-21T06:20:37;99058.38;;;44.90;10.23
42727;BME280;28372;56.832;60.658;2022-08-21T06:23:05;99059.50;;;44.95;10.13
42727;BME280;28372;56.832;60.658;2022-08-21T06:25:33;99048.22;;;45.05;10.47
42727;BME280;28372;56.832;60.658;2022-08-21T06:28:03;99054.22;;;45.16;9.88
42727;BME280;28372;56.832;60.658;2022-08-21T06:30:31;99046.16;;;45.23;10.28
42727;BME280;28372;56.832;60.658;2022-08-21T06:32:59;99051.34;;;45.16;10.49
42727;BME280;28372;56.832;60.658;2022-08-21T06:35:27;99051.88;;;45.23;9.72
42727;BME280;28372;56.832;60.658;2022-08-21T06:37:56;99049.31;;;45.35;10.20
42727;BME280;28372;56.832;60.658;2022-08-21T06:40:27;99043.84;;;45.29;10.37
42727;BME280;28372;56.832;60.658;2022-08-21T06:43:05;99047.91;;;45.18;9.96
42727;BME280;28372;56.832;60.658;2022-08-21T06:45:33;99034.31;;;45.26;9.96
42727;BME280;28372;56.832;60.658;2022-08-21T06:48:00;99035.94;;;45.37;9.71
42727;BME280;28372;56.832;60.658;2022-08-21T06:50:28;99032.41;;;45.29;10.29
42727;BME280;28372;56.832;60.658;2022-08-21T06:53:11;99043.19;;;45.13;10.12
42727;BME280;28372;56.832;60.658;2022-08-21T06:55:39;99028.78;;;45.03;10.12
42727;BME280;28372;56.832;60.658;2022-08-21T06:58:09;99037.03;;;44.74;10.35
42727;BME280;28372;56.832;60.658;2022-08-21T07:00:39;99033.44;;;44.65;10.65
42727;BME280;28372;56.832;60.658;2022-08-21T07:03:07;99024.84;;;44.73;10.46
42727;BME280;28372;56.832;60.658;2022-08-21T07:05:42;99010.22;;;44.69;10.80
42727;BME280;28372;56.832;60.658;2022-08-21T07:08:10;99024.44;;;44.77;10.47
42727;BME280;28372;56.832;60.658;2022-08-21T07:10:37;99027.69;;;44.73;10.82
42727;BME280;28372;56.832;60.658;2022-08-21T07:13:05;99023.34;;;44.64;10.86
42727;BME280;28372;56.832;60.658;2022-08-21T07:15:33;99027.19;;;44.59;10.77
42727;BME280;28372;56.832;60.658;2022-08-21T07:18:01;99029.75;;;44.47;11.39
42727;BME280;28372;56.832;60.658;2022-08-21T07:20:30;99035.47;;;44.40;11.18
42727;BME280;28372;56.832;60.658;2022-08-21T07:23:01;99025.97;;;44.37;11.50
42727;BME280;28372;56.832;60.658;2022-08-21T07:25:29;99021.09;;;44.30;11.42
42727;BME280;28372;56.832;60.658;2022-08-21T07:27:56;99006.94;;;43.99;11.79
42727;BME280;28372;56.832;60.658;2022-08-21T07:30:24;99005.50;;;43.75;11.73
42727;BME280;28372;56.832;60.658;2022-08-21T07:32:51;99015.44;;;43.51;12.34
42727;BME280;28372;56.832;60.658;2022-08-21T07:35:19;99021.16;;;43.27;12.48
42727;BME280;28372;56.832;60.658;2022-08-21T07:37:47;99022.44;;;42.95;12.53
42727;BME280;28372;56.832;60.658;2022-08-21T07:40:15;99012.00;;;42.67;13.23
42727;BME280;28372;56.832;60.658;2022-08-21T07:42:46;99017.38;;;42.26;13.48
42727;BME280;28372;56.832;60.658;2022-08-21T07:45:14;99010.75;;;41.87;13.54
42727;BME280;28372;56.832;60.658;2022-08-21T07:47:42;99008.03;;;41.45;14.00
42727;BME280;28372;56.832;60.658;2022-08-21T07:50:11;99006.47;;;41.15;14.03
42727;BME280;28372;56.832;60.658;2022-08-21T07:52:40;99008.34;;;40.70;14.19
42727;BME280;28372;56.832;60.658;2022-08-21T07:55:09;99005.50;;;40.36;15.07
42727;BME280;28372;56.832;60.658;2022-08-21T07:57:38;99000.31;;;40.13;15.47
42727;BME280;28372;56.832;60.658;2022-08-21T08:00:08;99003.28;;;40.07;15.37
42727;BME280;28372;56.832;60.658;2022-08-21T08:02:40;98997.53;;;39.86;15.57
42727;BME280;28372;56.832;60.658;2022-08-21T08:05:10;99005.81;;;39.84;15.88
42727;BME280;28372;56.832;60.658;2022-08-21T08:07:38;99000.25;;;39.52;16.20
42727;BME280;28372;56.832;60.658;2022-08-21T08:10:08;99007.72;;;39.36;16.29
42727;BME280;28372;56.832;60.658;2022-08-21T08:12:38;99004.13;;;39.22;16.34
42727;BME280;28372;56.832;60.658;2022-08-21T08:15:09;99005.44;;;39.21;16.78
42727;BME280;28372;56.832;60.658;2022-08-21T08:17:37;98994.16;;;39.02;16.61
42727;BME280;28372;56.832;60.658;2022-08-21T08:20:06;98999.56;;;38.86;16.98
42727;BME280;28372;56.832;60.658;2022-08-21T08:22:36;99005.16;;;38.73;17.16
42727;BME280;28372;56.832;60.658;2022-08-21T08:25:06;99001.81;;;38.55;17.48
42727;BME280;28372;56.832;60.658;2022-08-21T08:27:36;99001.13;;;38.49;17.60
42727;BME280;28372;56.832;60.658;2022-08-21T08:30:06;99007.63;;;38.06;18.37
42727;BME280;28372;56.832;60.658;2022-08-21T08:32:34;98997.41;;;37.53;18.86
42727;BME280;28372;56.832;60.658;2022-08-21T08:35:03;98999.28;;;37.45;19.22
42727;BME280;28372;56.832;60.658;2022-08-21T08:37:32;98999.34;;;37.40;19.29
42727;BME280;28372;56.832;60.658;2022-08-21T08:40:00;98992.84;;;37.20;19.18
42727;BME280;28372;56.832;60.658;2022-08-21T08:42:34;98997.94;;;37.27;19.04
42727;BME280;28372;56.832;60.658;2022-08-21T08:45:08;98986.81;;;37.04;20.07
42727;BME280;28372;56.832;60.658;2022-08-21T08:47:42;98995.78;;;36.73;20.71
42727;BME280;28372;56.832;60.658;2022-08-21T08:50:33;98993.84;;;36.98;20.05
42727;BME280;28372;56.832;60.658;2022-08-21T08:53:06;98998.00;;;36.49;20.31
42727;BME280;28372;56.832;60.658;2022-08-21T08:55:41;98990.38;;;36.39;20.69
42727;BME280;28372;56.832;60.658;2022-08-21T08:58:20;98988.25;;;35.97;20.75
42727;BME280;28372;56.832;60.658;2022-08-21T09:00:52;98996.84;;;35.52;21.51
42727;BME280;28372;56.832;60.658;2022-08-21T09:03:23;98981.75;;;35.27;21.62
42727;BME280;28372;56.832;60.658;2022-08-21T09:06:09;98984.03;;;35.51;22.11
42727;BME280;28372;56.832;60.658;2022-08-21T09:11:51;98957.22;;;35.33;22.33
42727;BME280;28372;56.832;60.658;2022-08-21T09:14:54;98975.41;;;34.87;22.85
42727;BME280;28372;56.832;60.658;2022-08-21T09:20:26;98974.31;;;34.50;23.77
42727;BME280;28372;56.832;60.658;2022-08-21T09:25:55;98977.53;;;34.14;24.52
42727;BME280;28372;56.832;60.658;2022-08-21T09:28:26;98958.75;;;33.77;24.97
42727;BME280;28372;56.832;60.658;2022-08-21T09:30:55;98958.53;;;33.38;25.29
42727;BME280;28372;56.832;60.658;2022-08-21T09:33:23;98963.31;;;33.32;25.11
42727;BME280;28372;56.832;60.658;2022-08-21T09:35:52;98966.94;;;33.38;25.54
42727;BME280;28372;56.832;60.658;2022-08-21T09:38:30;98965.53;;;33.59;25.36
42727;BME280;28372;56.832;60.658;2022-08-21T09:41:05;98964.16;;;33.43;25.67
42727;BME280;28372;56.832;60.658;2022-08-21T09:43:34;98959.28;;;33.06;25.93
42727;BME280;28372;56.832;60.658;2022-08-21T09:46:23;98961.22;;;33.21;25.30
42727;BME280;28372;56.832;60.658;2022-08-21T09:48:57;98957.41;;;32.92;26.32
42727;BME280;28372;56.832;60.658;2022-08-21T09:51:28;98956.16;;;32.67;26.49
42727;BME280;28372;56.832;60.658;2022-08-21T09:56:37;98931.53;;;32.71;26.77
42727;BME280;28372;56.832;60.658;2022-08-21T09:59:28;98935.13;;;32.71;27.07
42727;BME280;28372;56.832;60.658;2022-08-21T10:02:24;98946.25;;;32.97;26.65
42727;BME280;28372;56.832;60.658;2022-08-21T10:04:58;98939.44;;;32.46;27.34
42727;BME280;28372;56.832;60.658;2022-08-21T10:07:31;98931.94;;;32.37;27.46
42727;BME280;28372;56.832;60.658;2022-08-21T10:10:13;98929.66;;;32.36;27.68
42727;BME280;28372;56.832;60.658;2022-08-21T10:18:48;98932.50;;;32.68;27.40
42727;BME280;28372;56.832;60.658;2022-08-21T10:24:32;98929.59;;;32.56;27.61
42727;BME280;28372;56.832;60.658;2022-08-21T10:51:56;98913.44;;;31.37;30.19
42727;BME280;28372;56.832;60.658;2022-08-21T10:57:57;98908.81;;;31.13;30.68
42727;BME280;28372;56.832;60.658;2022-08-21T11:00:41;98914.38;;;31.13;30.47
42727;BME280;28372;56.832;60.658;2022-08-21T11:03:16;98914.88;;;30.82;31.28
42727;BME280;28372;56.832;60.658;2022-08-21T11:05:52;98909.50;;;30.78;31.43
42727;BME280;28372;56.832;60.658;2022-08-21T11:08:38;98908.22;;;30.94;31.06
42727;BME280;28372;56.832;60.658;2022-08-21T11:16:44;98916.63;;;30.49;31.90
42727;BME280;28372;56.832;60.658;2022-08-21T11:21:48;98915.50;;;30.56;32.13
42727;BME280;28372;56.832;60.658;2022-08-21T11:30:12;98905.56;;;30.40;32.60
42727;BME280;28372;56.832;60.658;2022-08-21T11:33:13;98906.44;;;30.61;31.97
42727;BME280;28372;56.832;60.658;2022-08-21T11:35:46;98898.88;;;30.22;32.30
42727;BME280;28372;56.832;60.658;2022-08-21T11:38:37;98899.63;;;30.47;32.09
42727;BME280;28372;56.832;60.658;2022-08-21T11:44:10;98898.06;;;30.46;32.49
42727;BME280;28372;56.832;60.658;2022-08-21T11:52:26;98888.22;;;30.21;33.00
42727;BME280;28372;56.832;60.658;2022-08-21T11:57:50;98881.78;;;30.15;33.35
42727;BME280;28372;56.832;60.658;2022-08-21T12:00:25;98871.53;;;29.97;33.22
42727;BME280;28372;56.832;60.658;2022-08-21T12:02:57;98882.97;;;29.99;33.32
42727;BME280;28372;56.832;60.658;2022-08-21T12:05:33;98877.88;;;29.97;33.39
42727;BME280;28372;56.832;60.658;2022-08-21T12:08:04;98871.34;;;29.85;33.32
42727;BME280;28372;56.832;60.658;2022-08-21T12:10:39;98878.84;;;29.94;33.37
42727;BME280;28372;56.832;60.658;2022-08-21T12:13:21;98871.00;;;29.83;33.87
42727;BME280;28372;56.832;60.658;2022-08-21T12:16:13;98880.09;;;29.93;33.76
42727;BME280;28372;56.832;60.658;2022-08-21T12:18:42;98864.25;;;29.75;33.60
42727;BME280;28372;56.832;60.658;2022-08-21T12:24:02;98880.09;;;29.93;33.53
42727;BME280;28372;56.832;60.658;2022-08-21T12:26:34;98875.22;;;29.79;33.90
42727;BME280;28372;56.832;60.658;2022-08-21T12:29:15;98879.13;;;29.96;33.33
42727;BME280;28372;56.832;60.658;2022-08-21T12:32:43;98876.13;;;29.85;34.12
42727;BME280;28372;56.832;60.658;2022-08-21T12:34:41;98868.06;;;29.87;33.94
42727;BME280;28372;56.832;60.658;2022-08-21T12:37:21;98868.34;;;29.89;33.63
42727;BME280;28372;56.832;60.658;2022-08-21T12:39:52;98874.91;;;29.77;33.94
42727;BME280;28372;56.832;60.658;2022-08-21T12:42:33;98867.38;;;29.92;33.77
42727;BME280;28372;56.832;60.658;2022-08-21T12:45:16;98863.59;;;29.80;33.79
42727;BME280;28372;56.832;60.658;2022-08-21T12:47:51;98855.44;;;29.52;33.67
42727;BME280;28372;56.832;60.658;2022-08-21T12:50:36;98867.13;;;29.81;33.67
42727;BME280;28372;56.832;60.658;2022-08-21T12:53:06;98855.84;;;29.60;33.73
42727;BME280;28372;56.832;60.658;2022-08-21T12:55:47;98855.31;;;29.47;33.46
42727;BME280;28372;56.832;60.658;2022-08-21T12:58:23;98864.88;;;29.55;33.86
42727;BME280;28372;56.832;60.658;2022-08-21T13:01:13;98856.56;;;29.70;33.50
42727;BME280;28372;56.832;60.658;2022-08-21T13:03:44;98856.69;;;29.27;33.86
42727;BME280;28372;56.832;60.658;2022-08-21T13:06:26;98856.88;;;29.24;33.79
42727;BME280;28372;56.832;60.658;2022-08-21T13:09:05;98854.63;;;29.37;33.74
42727;BME280;28372;56.832;60.658;2022-08-21T13:11:34;98849.91;;;29.19;33.89
42727;BME280;28372;56.832;60.658;2022-08-21T13:14:06;98859.47;;;29.76;32.63
42727;BME280;28372;56.832;60.658;2022-08-21T13:16:43;98851.72;;;29.31;33.11
42727;BME280;28372;56.832;60.658;2022-08-21T13:19:17;98862.50;;;29.38;33.34
42727;BME280;28372;56.832;60.658;2022-08-21T13:21:50;98858.25;;;29.19;33.51
42727;BME280;28372;56.832;60.658;2022-08-21T13:24:28;98862.84;;;29.31;33.58
42727;BME280;28372;56.832;60.658;2022-08-21T13:27:40;98863.56;;;29.41;33.48
42727;BME280;28372;56.832;60.658;2022-08-21T13:30:17;98850.78;;;29.01;33.95
42727;BME280;28372;56.832;60.658;2022-08-21T13:32:49;98858.06;;;28.98;34.52
42727;BME280;28372;56.832;60.658;2022-08-21T13:38:12;98858.78;;;28.75;35.12
42727;BME280;28372;56.832;60.658;2022-08-21T13:40:46;98868.16;;;28.86;35.38
42727;BME280;28372;56.832;60.658;2022-08-21T13:43:19;98864.38;;;28.75;34.89
42727;BME280;28372;56.832;60.658;2022-08-21T13:45:51;98871.91;;;28.74;34.84
42727;BME280;28372;56.832;60.658;2022-08-21T13:48:21;98860.38;;;28.66;35.04
42727;BME280;28372;56.832;60.658;2022-08-21T13:50:49;98858.53;;;28.63;35.27
42727;BME280;28372;56.832;60.658;2022-08-21T13:55:54;98858.38;;;28.58;35.59
42727;BME280;28372;56.832;60.658;2022-08-21T13:58:53;98868.47;;;28.88;35.10
42727;BME280;28372;56.832;60.658;2022-08-21T14:01:25;98864.97;;;28.60;35.63
42727;BME280;28372;56.832;60.658;2022-08-21T14:03:55;98866.38;;;29.08;34.55
42727;BME280;28372;56.832;60.658;2022-08-21T14:06:28;98867.34;;;28.52;35.28
42727;BME280;28372;56.832;60.658;2022-08-21T14:09:07;98875.53;;;28.47;35.67
42727;BME280;28372;56.832;60.658;2022-08-21T14:11:35;98860.28;;;28.33;35.41
42727;BME280;28372;56.832;60.658;2022-08-21T14:14:33;98872.44;;;28.63;35.45
42727;BME280;28372;56.832;60.658;2022-08-21T14:17:09;98867.53;;;28.30;35.98
42727;BME280;28372;56.832;60.658;2022-08-21T14:19:51;98861.53;;;28.13;36.17
42727;BME280;28372;56.832;60.658;2022-08-21T14:22:38;98870.31;;;28.40;36.00
42727;BME280;28372;56.832;60.658;2022-08-21T14:25:26;98862.78;;;28.22;36.78
42727;BME280;28372;56.832;60.658;2022-08-21T14:27:55;98855.50;;;27.96;36.45
42727;BME280;28372;56.832;60.658;2022-08-21T14:30:35;98857.53;;;28.14;36.54
42727;BME280;28372;56.832;60.658;2022-08-21T14:33:07;98868.03;;;27.92;36.71
42727;BME280;28372;56.832;60.658;2022-08-21T14:35:36;98858.75;;;27.85;36.35
42727;BME280;28372;56.832;60.658;2022-08-21T14:38:14;98866.00;;;27.92;36.93
42727;BME280;28372;56.832;60.658;2022-08-21T14:40:48;98865.56;;;27.75;37.34
42727;BME280;28372;56.832;60.658;2022-08-21T14:43:17;98864.63;;;27.69;36.59